sensor_id;sensor_type;location;lat;lon;timestamp;temperature;humidity
3380;DHT22;1703;51.964;7.642;2022-08-19T00:00:31;21.20;99.90
3380;DHT22;1703;51.964;7.642;2022-08-19T00:02:58;21.20;99.90
3380;DHT22;1703;51.964;7.642;2022-08-19T00:05:26;21.10;99.90
3380;DHT22;1703;51.964;7.642;2022-08-19T00:07:53;21.10;99.90
3380;DHT22;1703;51.964;7.642;2022-08-19T00:10:22;21.10;99.90
3380;DHT22;1703;51.964;7.642;2022-08-19T00:12:50;21.00;99.90
3380;DHT22;1703;51.964;7.642;2022-08-19T00:15:18;21.00;99.90
3380;DHT22;1703;51.964;7.642;2022-08-19T00:17:46;21.00;99.90
3380;DHT22;1703;51.964;7.642;2022-08-19T00:20:15;20.90;99.90
3380;DHT22;1703;51.964;7.642;2022-08-19T00:22:44;20.90;99.90
3380;DHT22;1703;51.964;7.642;2022-08-19T00:25:13;20.90;99.90
3380;DHT22;1703;51.964;7.642;2022-08-19T00:27:41;20.90;99.90
3380;DHT22;1703;51.964;7.642;2022-08-19T00:30:08;20.80;99.90
3380;DHT22;1703;51.964;7.642;2022-08-19T00:32:38;20.80;99.90
3380;DHT22;1703;51.964;7.642;2022-08-19T00:35:06;20.90;99.90
3380;DHT22;1703;51.964;7.642;2022-08-19T00:37:33;20.90;99.90
3380;DHT22;1703;51.964;7.642;2022-08-19T00:40:04;20.90;99.90
3380;DHT22;1703;51.964;7.642;2022-08-19T00:42:31;20.90;99.90
3380;DHT22;1703;51.964;7.642;2022-08-19T00:44:58;20.90;99.90
3380;DHT22;1703;51.964;7.642;2022-08-19T00:47:25;20.90;99.90
3380;DHT22;1703;51.964;7.642;2022-08-19T00:49:55;20.80;99.90
3380;DHT22;1703;51.964;7.642;2022-08-19T00:52:26;20.90;99.90
3380;DHT22;1703;51.964;7.642;2022-08-19T00:54:56;20.80;99.90
3380;DHT22;1703;51.964;7.642;2022-08-19T00:57:29;20.80;99.90
3380;DHT22;1703;51.964;7.642;2022-08-19T00:59:58;20.80;99.90
3380;DHT22;1703;51.964;7.642;2022-08-19T01:02:27;20.80;99.90
3380;DHT22;1703;51.964;7.642;2022-08-19T01:04:54;20.80;99.90
3380;DHT22;1703;51.964;7.642;2022-08-19T01:07:22;20.70;99.90
3380;DHT22;1703;51.964;7.642;2022-08-19T01:09:50;20.70;99.90
3380;DHT22;1703;51.964;7.642;2022-08-19T01:12:18;20.60;99.90
3380;DHT22;1703;51.964;7.642;2022-08-19T01:14:52;20.60;99.90
3380;DHT22;1703;51.964;7.642;2022-08-19T01:17:22;20.60;99.90
3380;DHT22;1703;51.964;7.642;2022-08-19T01:19:52;20.60;99.90
3380;DHT22;1703;51.964;7.642;2022-08-19T01:22:27;20.50;99.90
3380;DHT22;1703;51.964;7.642;2022-08-19T01:24:56;20.50;99.90
3380;DHT22;1703;51.964;7.642;2022-08-19T01:27:23;20.60;99.90
3380;DHT22;1703;51.964;7.642;2022-08-19T01:29:51;20.60;99.90
3380;DHT22;1703;51.964;7.642;2022-08-19T01:32:21;20.60;99.90
3380;DHT22;1703;51.964;7.642;2022-08-19T01:34:54;20.60;99.90
3380;DHT22;1703;51.964;7.642;2022-08-19T01:37:21;20.50;99.90
3380;DHT22;1703;51.964;7.642;2022-08-19T01:39:49;20.50;99.90
3380;DHT22;1703;51.964;7.642;2022-08-19T01:42:17;20.50;99.90
3380;DHT22;1703;51.964;7.642;2022-08-19T01:44:45;20.40;99.90
3380;DHT22;1703;51.964;7.642;2022-08-19T01:47:15;20.40;99.90
3380;DHT22;1703;51.964;7.642;2022-08-19T01:49:42;20.40;99.90
3380;DHT22;1703;51.964;7.642;2022-08-19T01:52:09;20.40;99.90
3380;DHT22;1703;51.964;7.642;2022-08-19T01:54:39;20.40;99.90
3380;DHT22;1703;51.964;7.642;2022-08-19T01:57:11;20.30;99.90
3380;DHT22;1703;51.964;7.642;2022-08-19T01:59:40;20.30;99.90
3380;DHT22;1703;51.964;7.642;2022-08-19T02:02:08;20.40;99.90
3380;DHT22;1703;51.964;7.642;2022-08-19T02:04:35;20.40;99.90
3380;DHT22;1703;51.964;7.642;2022-08-19T02:07:04;20.30;99.90
3380;DHT22;1703;51.964;7.642;2022-08-19T02:09:32;20.30;99.90
3380;DHT22;1703;51.964;7.642;2022-08-19T02:12:00;20.30;99.90
3380;DHT22;1703;51.964;7.642;2022-08-19T02:14:33;20.40;99.90
3380;DHT22;1703;51.964;7.642;2022-08-19T02:17:01;20.30;99.90
3380;DHT22;1703;51.964;7.642;2022-08-19T02:19:29;20.30;99.90
3380;DHT22;1703;51.964;7.642;2022-08-19T02:21:57;20.20;99.90
3380;DHT22;1703;51.964;7.642;2022-08-19T02:24:25;20.20;99.90
3380;DHT22;1703;51.964;7.642;2022-08-19T02:26:56;20.30;99.90
3380;DHT22;1703;51.964;7.642;2022-08-19T02:29:33;20.30;99.90
3380;DHT22;1703;51.964;7.642;2022-08-19T02:32:01;20.30;99.90
3380;DHT22;1703;51.964;7.642;2022-08-19T02:34:30;20.30;99.90
3380;DHT22;1703;51.964;7.642;2022-08-19T02:36:57;20.20;99.90
3380;DHT22;1703;51.964;7.642;2022-08-19T02:39:24;20.20;99.90
3380;DHT22;1703;51.964;7.642;2022-08-19T02:41:50;20.10;99.90
3380;DHT22;1703;51.964;7.642;2022-08-19T02:44:17;20.10;99.90
3380;DHT22;1703;51.964;7.642;2022-08-19T02:46:47;20.20;99.90
3380;DHT22;1703;51.964;7.642;2022-08-19T02:49:15;20.20;99.90
3380;DHT22;1703;51.964;7.642;2022-08-19T02:51:45;20.10;99.90
3380;DHT22;1703;51.964;7.642;2022-08-19T02:54:13;20.00;99.90
3380;DHT22;1703;51.964;7.642;2022-08-19T02:56:40;20.00;99.90
3380;DHT22;1703;51.964;7.642;2022-08-19T02:59:07;20.00;99.90
3380;DHT22;1703;51.964;7.642;2022-08-19T03:01:37;20.00;99.90
3380;DHT22;1703;51.964;7.642;2022-08-19T03:04:06;20.00;99.90
3380;DHT22;1703;51.964;7.642;2022-08-19T03:06:36;20.00;99.90
3380;DHT22;1703;51.964;7.642;2022-08-19T03:09:03;20.10;99.90
3380;DHT22;1703;51.964;7.642;2022-08-19T03:11:31;20.00;99.90
3380;DHT22;1703;51.964;7.642;2022-08-19T03:13:59;19.90;99.90
3380;DHT22;1703;51.964;7.642;2022-08-19T03:16:27;19.90;99.90
3380;DHT22;1703;51.964;7.642;2022-08-19T03:18:56;19.90;99.90
3380;DHT22;1703;51.964;7.642;2022-08-19T03:21:28;19.90;99.90
3380;DHT22;1703;51.964;7.642;2022-08-19T03:23:57;19.90;99.90
3380;DHT22;1703;51.964;7.642;2022-08-19T03:26:24;19.80;99.90
3380;DHT22;1703;51.964;7.642;2022-08-19T03:28:51;19.70;99.90
3380;DHT22;1703;51.964;7.642;2022-08-19T03:31:20;19.70;99.90
3380;DHT22;1703;51.964;7.642;2022-08-19T03:33:48;19.70;99.90
3380;DHT22;1703;51.964;7.642;2022-08-19T03:36:18;19.70;99.90
3380;DHT22;1703;51.964;7.642;2022-08-19T03:38:49;19.70;99.90
3380;DHT22;1703;51.964;7.642;2022-08-19T03:41:18;19.70;99.90
3380;DHT22;1703;51.964;7.642;2022-08-19T03:43:46;19.80;99.90
3380;DHT22;1703;51.964;7.642;2022-08-19T03:46:17;19.80;99.90
3380;DHT22;1703;51.964;7.642;2022-08-19T03:48:47;19.80;99.90
3380;DHT22;1703;51.964;7.642;2022-08-19T03:51:19;19.90;99.90
3380;DHT22;1703;51.964;7.642;2022-08-19T03:53:48;19.90;99.90
3380;DHT22;1703;51.964;7.642;2022-08-19T03:56:15;19.90;99.90
3380;DHT22;1703;51.964;7.642;2022-08-19T03:58:42;19.90;99.90
3380;DHT22;1703;51.964;7.642;2022-08-19T04:01:11;19.80;99.90
3380;DHT22;1703;51.964;7.642;2022-08-19T04:03:38;19.80;99.90
3380;DHT22;1703;51.964;7.642;2022-08-19T04:06:12;19.70;99.90
3380;DHT22;1703;51.964;7.642;2022-08-19T04:08:40;19.70;99.90
3380;DHT22;1703;51.964;7.642;2022-08-19T04:11:10;19.70;99.90
3380;DHT22;1703;51.964;7.642;2022-08-19T04:13:37;19.90;99.90
3380;DHT22;1703;51.964;7.642;2022-08-19T04:16:04;19.90;99.90
3380;DHT22;1703;51.964;7.642;2022-08-19T04:18:32;19.80;99.90
3380;DHT22;1703;51.964;7.642;2022-08-19T04:20:59;19.80;99.90
3380;DHT22;1703;51.964;7.642;2022-08-19T04:23:27;19.90;99.90
3380;DHT22;1703;51.964;7.642;2022-08-19T04:25:55;19.80;99.90
3380;DHT22;1703;51.964;7.642;2022-08-19T04:28:23;19.80;99.90
3380;DHT22;1703;51.964;7.642;2022-08-19T04:30:53;19.80;99.90
3380;DHT22;1703;51.964;7.642;2022-08-19T04:33:22;19.70;99.90
3380;DHT22;1703;51.964;7.642;2022-08-19T04:35:51;19.80;99.90
3380;DHT22;1703;51.964;7.642;2022-08-19T04:38:21;19.80;99.90
3380;DHT22;1703;51.964;7.642;2022-08-19T04:40:50;19.90;99.90
3380;DHT22;1703;51.964;7.642;2022-08-19T04:43:38;19.80;99.90
3380;DHT22;1703;51.964;7.642;2022-08-19T04:46:05;19.70;99.90
3380;DHT22;1703;51.964;7.642;2022-08-19T04:48:32;19.80;99.90
3380;DHT22;1703;51.964;7.642;2022-08-19T04:50:59;19.80;99.90
3380;DHT22;1703;51.964;7.642;2022-08-19T04:53:27;19.90;99.90
3380;DHT22;1703;51.964;7.642;2022-08-19T04:55:55;19.80;99.90
3380;DHT22;1703;51.964;7.642;2022-08-19T04:58:22;19.80;99.90
3380;DHT22;1703;51.964;7.642;2022-08-19T05:00:51;19.80;99.90
3380;DHT22;1703;51.964;7.642;2022-08-19T05:03:18;19.80;99.90
3380;DHT22;1703;51.964;7.642;2022-08-19T05:05:46;19.70;99.90
3380;DHT22;1703;51.964;7.642;2022-08-19T05:08:18;19.70;99.90
3380;DHT22;1703;51.964;7.642;2022-08-19T05:10:46;19.80;99.90
3380;DHT22;1703;51.964;7.642;2022-08-19T05:13:13;19.80;99.90
3380;DHT22;1703;51.964;7.642;2022-08-19T05:15:41;19.80;99.90
3380;DHT22;1703;51.964;7.642;2022-08-19T05:18:10;19.80;99.90
3380;DHT22;1703;51.964;7.642;2022-08-19T05:20:55;19.90;99.90
3380;DHT22;1703;51.964;7.642;2022-08-19T05:23:39;19.90;99.90
3380;DHT22;1703;51.964;7.642;2022-08-19T05:26:06;19.90;99.90
3380;DHT22;1703;51.964;7.642;2022-08-19T05:28:34;19.80;99.90
3380;DHT22;1703;51.964;7.642;2022-08-19T05:31:01;19.80;99.90
3380;DHT22;1703;51.964;7.642;2022-08-19T05:33:30;19.80;99.90
3380;DHT22;1703;51.964;7.642;2022-08-19T05:35:56;19.90;99.90
3380;DHT22;1703;51.964;7.642;2022-08-19T05:38:24;19.90;99.90
3380;DHT22;1703;51.964;7.642;2022-08-19T05:40:52;19.90;99.90
3380;DHT22;1703;51.964;7.642;2022-08-19T05:43:19;20.00;99.90
3380;DHT22;1703;51.964;7.642;2022-08-19T05:45:46;20.00;99.90
3380;DHT22;1703;51.964;7.642;2022-08-19T05:48:13;20.10;99.90
3380;DHT22;1703;51.964;7.642;2022-08-19T05:50:42;20.20;99.90
3380;DHT22;1703;51.964;7.642;2022-08-19T05:53:09;20.30;99.90
3380;DHT22;1703;51.964;7.642;2022-08-19T05:55:37;20.30;99.90
3380;DHT22;1703;51.964;7.642;2022-08-19T05:58:05;20.40;99.90
3380;DHT22;1703;51.964;7.642;2022-08-19T06:00:33;20.50;99.90
3380;DHT22;1703;51.964;7.642;2022-08-19T06:03:00;20.60;99.90
3380;DHT22;1703;51.964;7.642;2022-08-19T06:05:28;20.70;99.90
3380;DHT22;1703;51.964;7.642;2022-08-19T06:07:57;20.80;99.90
3380;DHT22;1703;51.964;7.642;2022-08-19T06:10:25;20.80;99.90
3380;DHT22;1703;51.964;7.642;2022-08-19T06:12:52;20.80;99.90
3380;DHT22;1703;51.964;7.642;2022-08-19T06:15:19;20.80;99.90
3380;DHT22;1703;51.964;7.642;2022-08-19T06:17:47;20.80;99.90
3380;DHT22;1703;51.964;7.642;2022-08-19T06:20:15;20.90;99.90
3380;DHT22;1703;51.964;7.642;2022-08-19T06:22:45;20.90;99.90
3380;DHT22;1703;51.964;7.642;2022-08-19T06:25:14;21.00;99.90
3380;DHT22;1703;51.964;7.642;2022-08-19T06:27:41;21.00;99.90
3380;DHT22;1703;51.964;7.642;2022-08-19T06:30:09;21.00;99.90
3380;DHT22;1703;51.964;7.642;2022-08-19T08:19:36;21.40;99.90
3380;DHT22;1703;51.964;7.642;2022-08-19T08:22:07;22.30;99.90
3380;DHT22;1703;51.964;7.642;2022-08-19T08:24:54;22.40;99.90
3380;DHT22;1703;51.964;7.642;2022-08-19T08:27:23;22.50;99.90
3380;DHT22;1703;51.964;7.642;2022-08-19T08:29:51;22.60;99.90
3380;DHT22;1703;51.964;7.642;2022-08-19T08:32:18;22.70;99.90
3380;DHT22;1703;51.964;7.642;2022-08-19T08:34:46;22.70;99.90
3380;DHT22;1703;51.964;7.642;2022-08-19T08:37:13;22.80;99.90
3380;DHT22;1703;51.964;7.642;2022-08-19T08:39:40;22.90;99.90
3380;DHT22;1703;51.964;7.642;2022-08-19T08:42:14;22.90;99.90
3380;DHT22;1703;51.964;7.642;2022-08-19T08:44:49;23.00;99.90
3380;DHT22;1703;51.964;7.642;2022-08-19T08:47:20;23.00;99.90
3380;DHT22;1703;51.964;7.642;2022-08-19T08:49:51;23.00;99.90
3380;DHT22;1703;51.964;7.642;2022-08-19T08:52:22;23.10;99.90
3380;DHT22;1703;51.964;7.642;2022-08-19T08:54:52;23.20;99.90
3380;DHT22;1703;51.964;7.642;2022-08-19T08:57:23;23.40;99.90
3380;DHT22;1703;51.964;7.642;2022-08-19T08:59:54;23.40;99.90
3380;DHT22;1703;51.964;7.642;2022-08-19T09:02:24;23.50;99.90
3380;DHT22;1703;51.964;7.642;2022-08-19T09:04:54;23.50;99.90
3380;DHT22;1703;51.964;7.642;2022-08-19T09:07:28;23.70;99.90
3380;DHT22;1703;51.964;7.642;2022-08-19T09:10:07;24.00;99.90
3380;DHT22;1703;51.964;7.642;2022-08-19T09:12:41;24.00;99.90
3380;DHT22;1703;51.964;7.642;2022-08-19T09:15:15;24.10;99.90
3380;DHT22;1703;51.964;7.642;2022-08-19T09:17:42;24.20;99.90
3380;DHT22;1703;51.964;7.642;2022-08-19T09:20:17;24.40;99.90
3380;DHT22;1703;51.964;7.642;2022-08-19T09:22:45;24.70;99.90
3380;DHT22;1703;51.964;7.642;2022-08-19T09:25:17;24.80;99.90
3380;DHT22;1703;51.964;7.642;2022-08-19T09:27:45;24.80;99.90
3380;DHT22;1703;51.964;7.642;2022-08-19T09:30:16;24.60;99.90
3380;DHT22;1703;51.964;7.642;2022-08-19T09:32:44;24.40;99.90
3380;DHT22;1703;51.964;7.642;2022-08-19T09:35:13;24.50;99.90
3380;DHT22;1703;51.964;7.642;2022-08-19T09:37:41;24.60;99.90
3380;DHT22;1703;51.964;7.642;2022-08-19T09:40:10;24.50;99.90
3380;DHT22;1703;51.964;7.642;2022-08-19T09:42:37;24.40;99.90
3380;DHT22;1703;51.964;7.642;2022-08-19T09:45:05;24.40;99.90
3380;DHT22;1703;51.964;7.642;2022-08-19T09:47:32;24.40;99.90
3380;DHT22;1703;51.964;7.642;2022-08-19T09:50:01;24.40;99.90
3380;DHT22;1703;51.964;7.642;2022-08-19T09:52:28;24.40;99.90
3380;DHT22;1703;51.964;7.642;2022-08-19T09:54:56;24.50;99.90
3380;DHT22;1703;51.964;7.642;2022-08-19T09:57:23;24.50;99.90
3380;DHT22;1703;51.964;7.642;2022-08-19T09:59:50;24.60;99.90
3380;DHT22;1703;51.964;7.642;2022-08-19T10:02:17;24.60;99.90
3380;DHT22;1703;51.964;7.642;2022-08-19T10:04:44;24.70;99.90
3380;DHT22;1703;51.964;7.642;2022-08-19T10:07:29;24.70;99.90
3380;DHT22;1703;51.964;7.642;2022-08-19T10:09:58;24.70;99.90
3380;DHT22;1703;51.964;7.642;2022-08-19T10:12:24;24.70;99.90
3380;DHT22;1703;51.964;7.642;2022-08-19T10:14:51;24.70;99.90
3380;DHT22;1703;51.964;7.642;2022-08-19T10:17:20;24.80;99.90
3380;DHT22;1703;51.964;7.642;2022-08-19T10:19:46;24.90;99.90
3380;DHT22;1703;51.964;7.642;2022-08-19T10:22:13;25.20;99.90
3380;DHT22;1703;51.964;7.642;2022-08-19T10:24:40;25.20;99.90
3380;DHT22;1703;51.964;7.642;2022-08-19T10:27:09;25.10;99.90
3380;DHT22;1703;51.964;7.642;2022-08-19T10:29:35;25.40;99.90
3380;DHT22;1703;51.964;7.642;2022-08-19T10:32:03;25.30;99.90
3380;DHT22;1703;51.964;7.642;2022-08-19T10:34:34;25.40;99.90
3380;DHT22;1703;51.964;7.642;2022-08-19T10:37:02;25.50;99.90
3380;DHT22;1703;51.964;7.642;2022-08-19T10:39:31;25.40;99.90
3380;DHT22;1703;51.964;7.642;2022-08-19T10:41:58;25.30;99.90
3380;DHT22;1703;51.964;7.642;2022-08-19T10:44:26;25.30;99.90
3380;DHT22;1703;51.964;7.642;2022-08-19T10:46:55;25.20;99.90
3380;DHT22;1703;51.964;7.642;2022-08-19T10:49:22;25.10;99.90
3380;DHT22;1703;51.964;7.642;2022-08-19T10:51:49;25.40;99.90
3380;DHT22;1703;51.964;7.642;2022-08-19T10:54:39;25.70;99.90
3380;DHT22;1703;51.964;7.642;2022-08-19T10:57:23;25.80;99.90
3380;DHT22;1703;51.964;7.642;2022-08-19T10:59:56;26.00;99.90
3380;DHT22;1703;51.964;7.642;2022-08-19T11:02:23;26.10;99.90
3380;DHT22;1703;51.964;7.642;2022-08-19T11:04:50;26.30;99.90
3380;DHT22;1703;51.964;7.642;2022-08-19T11:07:17;26.30;99.90
3380;DHT22;1703;51.964;7.642;2022-08-19T11:09:44;26.30;99.90
3380;DHT22;1703;51.964;7.642;2022-08-19T11:12:12;26.30;99.90
3380;DHT22;1703;51.964;7.642;2022-08-19T11:14:40;26.50;99.90
3380;DHT22;1703;51.964;7.642;2022-08-19T11:17:08;26.40;99.90
3380;DHT22;1703;51.964;7.642;2022-08-19T11:19:36;26.60;99.90
3380;DHT22;1703;51.964;7.642;2022-08-19T11:22:03;26.60;99.90
3380;DHT22;1703;51.964;7.642;2022-08-19T11:24:31;26.80;99.90
3380;DHT22;1703;51.964;7.642;2022-08-19T11:27:02;26.90;99.90
3380;DHT22;1703;51.964;7.642;2022-08-19T11:29:30;26.80;99.90
3380;DHT22;1703;51.964;7.642;2022-08-19T11:31:58;26.60;99.90
3380;DHT22;1703;51.964;7.642;2022-08-19T11:34:28;26.60;99.90
3380;DHT22;1703;51.964;7.642;2022-08-19T11:36:56;26.50;99.90
3380;DHT22;1703;51.964;7.642;2022-08-19T11:39:26;26.30;99.90
3380;DHT22;1703;51.964;7.642;2022-08-19T11:42:03;26.20;99.90
3380;DHT22;1703;51.964;7.642;2022-08-19T11:44:52;26.40;99.90
3380;DHT22;1703;51.964;7.642;2022-08-19T11:47:19;26.20;99.90
3380;DHT22;1703;51.964;7.642;2022-08-19T11:49:48;26.40;99.90
3380;DHT22;1703;51.964;7.642;2022-08-19T11:58:43;26.60;99.90
3380;DHT22;1703;51.964;7.642;2022-08-19T12:01:12;26.50;99.90
3380;DHT22;1703;51.964;7.642;2022-08-19T12:03:41;26.40;99.90
3380;DHT22;1703;51.964;7.642;2022-08-19T12:06:14;26.30;99.90
3380;DHT22;1703;51.964;7.642;2022-08-19T12:08:47;26.40;99.90
3380;DHT22;1703;51.964;7.642;2022-08-19T12:11:29;26.40;99.90
3380;DHT22;1703;51.964;7.642;2022-08-19T12:13:56;26.50;99.90
3380;DHT22;1703;51.964;7.642;2022-08-19T12:16:25;26.60;99.90
3380;DHT22;1703;51.964;7.642;2022-08-19T12:18:53;26.70;99.90
3380;DHT22;1703;51.964;7.642;2022-08-19T12:21:25;26.90;99.90
3380;DHT22;1703;51.964;7.642;2022-08-19T12:23:56;27.00;99.90
3380;DHT22;1703;51.964;7.642;2022-08-19T12:26:25;26.90;99.90
3380;DHT22;1703;51.964;7.642;2022-08-19T12:28:52;26.90;99.90
3380;DHT22;1703;51.964;7.642;2022-08-19T12:31:20;26.80;99.90
3380;DHT22;1703;51.964;7.642;2022-08-19T12:33:48;26.70;99.90
3380;DHT22;1703;51.964;7.642;2022-08-19T12:36:17;26.70;99.90
3380;DHT22;1703;51.964;7.642;2022-08-19T12:38:46;26.60;99.90
3380;DHT22;1703;51.964;7.642;2022-08-19T12:41:14;26.50;99.90
3380;DHT22;1703;51.964;7.642;2022-08-19T12:43:43;26.60;99.90
3380;DHT22;1703;51.964;7.642;2022-08-19T12:46:10;26.70;99.90
3380;DHT22;1703;51.964;7.642;2022-08-19T12:48:38;26.70;99.90
3380;DHT22;1703;51.964;7.642;2022-08-19T12:51:09;26.70;99.90
3380;DHT22;1703;51.964;7.642;2022-08-19T12:53:36;26.80;99.90
3380;DHT22;1703;51.964;7.642;2022-08-19T12:56:09;27.00;99.90
3380;DHT22;1703;51.964;7.642;2022-08-19T12:58:40;27.10;99.90
3380;DHT22;1703;51.964;7.642;2022-08-19T13:01:09;27.10;99.90
3380;DHT22;1703;51.964;7.642;2022-08-19T13:03:36;27.10;99.90
3380;DHT22;1703;51.964;7.642;2022-08-19T13:06:03;27.00;99.90
3380;DHT22;1703;51.964;7.642;2022-08-19T13:08:31;26.90;99.90
3380;DHT22;1703;51.964;7.642;2022-08-19T13:11:08;27.00;99.90
3380;DHT22;1703;51.964;7.642;2022-08-19T13:13:36;27.00;99.90
3380;DHT22;1703;51.964;7.642;2022-08-19T13:16:07;27.30;99.90
3380;DHT22;1703;51.964;7.642;2022-08-19T13:18:34;27.30;99.90
3380;DHT22;1703;51.964;7.642;2022-08-19T13:21:02;27.60;99.90
3380;DHT22;1703;51.964;7.642;2022-08-19T13:23:30;27.80;99.90
3380;DHT22;1703;51.964;7.642;2022-08-19T13:25:57;27.90;99.90
3380;DHT22;1703;51.964;7.642;2022-08-19T13:28:26;28.00;99.90
3380;DHT22;1703;51.964;7.642;2022-08-19T13:31:15;28.20;99.90
3380;DHT22;1703;51.964;7.642;2022-08-19T13:34:00;28.30;99.90
3380;DHT22;1703;51.964;7.642;2022-08-19T13:36:26;28.40;99.90
3380;DHT22;1703;51.964;7.642;2022-08-19T13:38:53;28.70;99.90
3380;DHT22;1703;51.964;7.642;2022-08-19T13:41:22;29.70;99.90
3380;DHT22;1703;51.964;7.642;2022-08-19T13:43:50;30.90;99.90
3380;DHT22;1703;51.964;7.642;2022-08-19T13:46:17;31.60;99.90
3380;DHT22;1703;51.964;7.642;2022-08-19T13:48:45;32.00;99.90
3380;DHT22;1703;51.964;7.642;2022-08-19T13:51:12;33.20;99.90
3380;DHT22;1703;51.964;7.642;2022-08-19T13:53:39;34.00;99.90
3380;DHT22;1703;51.964;7.642;2022-08-19T13:56:12;35.20;98.10
3380;DHT22;1703;51.964;7.642;2022-08-19T13:58:40;35.50;95.20
3380;DHT22;1703;51.964;7.642;2022-08-19T14:01:11;35.30;92.60
3380;DHT22;1703;51.964;7.642;2022-08-19T14:03:38;34.90;92.80
3380;DHT22;1703;51.964;7.642;2022-08-19T14:06:05;34.30;92.60
3380;DHT22;1703;51.964;7.642;2022-08-19T14:08:35;34.60;92.40
3380;DHT22;1703;51.964;7.642;2022-08-19T14:11:12;34.40;92.20
3380;DHT22;1703;51.964;7.642;2022-08-19T14:13:41;34.40;91.90
3380;DHT22;1703;51.964;7.642;2022-08-19T14:16:10;34.60;90.30
3380;DHT22;1703;51.964;7.642;2022-08-19T14:18:38;34.20;91.00
3380;DHT22;1703;51.964;7.642;2022-08-19T14:21:05;34.20;91.60
3380;DHT22;1703;51.964;7.642;2022-08-19T14:23:33;33.80;92.30
3380;DHT22;1703;51.964;7.642;2022-08-19T14:26:05;33.60;91.50
3380;DHT22;1703;51.964;7.642;2022-08-19T14:28:32;33.20;92.50
3380;DHT22;1703;51.964;7.642;2022-08-19T14:30:58;32.90;93.30
3380;DHT22;1703;51.964;7.642;2022-08-19T14:33:29;32.80;94.30
3380;DHT22;1703;51.964;7.642;2022-08-19T14:35:56;32.20;94.60
3380;DHT22;1703;51.964;7.642;2022-08-19T14:38:25;31.90;95.10
3380;DHT22;1703;51.964;7.642;2022-08-19T14:40:52;31.40;96.50
3380;DHT22;1703;51.964;7.642;2022-08-19T14:43:19;30.90;97.10
3380;DHT22;1703;51.964;7.642;2022-08-19T14:45:47;30.90;97.70
3380;DHT22;1703;51.964;7.642;2022-08-19T14:48:14;30.40;98.00
3380;DHT22;1703;51.964;7.642;2022-08-19T14:50:42;30.10;98.30
3380;DHT22;1703;51.964;7.642;2022-08-19T14:53:10;30.10;99.30
3380;DHT22;1703;51.964;7.642;2022-08-19T14:55:41;30.10;99.20
3380;DHT22;1703;51.964;7.642;2022-08-19T14:58:08;30.00;98.80
3380;DHT22;1703;51.964;7.642;2022-08-19T15:00:35;29.80;99.40
3380;DHT22;1703;51.964;7.642;2022-08-19T15:03:02;29.70;99.40
3380;DHT22;1703;51.964;7.642;2022-08-19T15:05:30;29.20;99.20
3380;DHT22;1703;51.964;7.642;2022-08-19T15:08:02;29.10;99.90
3380;DHT22;1703;51.964;7.642;2022-08-19T15:10:29;29.00;99.90
3380;DHT22;1703;51.964;7.642;2022-08-19T15:12:58;28.80;99.90
3380;DHT22;1703;51.964;7.642;2022-08-19T15:15:25;28.70;99.90
3380;DHT22;1703;51.964;7.642;2022-08-19T15:17:53;28.50;99.90
3380;DHT22;1703;51.964;7.642;2022-08-19T15:20:21;28.40;99.90
3380;DHT22;1703;51.964;7.642;2022-08-19T15:22:49;28.40;99.90
3380;DHT22;1703;51.964;7.642;2022-08-19T15:25:18;28.30;99.90
3380;DHT22;1703;51.964;7.642;2022-08-19T15:27:47;28.20;99.90
3380;DHT22;1703;51.964;7.642;2022-08-19T15:30:19;28.20;99.90
3380;DHT22;1703;51.964;7.642;2022-08-19T15:32:46;28.20;99.90
3380;DHT22;1703;51.964;7.642;2022-08-19T15:35:13;28.10;99.90
3380;DHT22;1703;51.964;7.642;2022-08-19T15:37:40;28.10;99.90
3380;DHT22;1703;51.964;7.642;2022-08-19T15:40:08;28.10;99.90
3380;DHT22;1703;51.964;7.642;2022-08-19T15:42:37;28.00;99.90
3380;DHT22;1703;51.964;7.642;2022-08-19T15:45:07;27.90;99.90
3380;DHT22;1703;51.964;7.642;2022-08-19T15:47:36;27.90;99.90
3380;DHT22;1703;51.964;7.642;2022-08-19T15:50:06;27.80;99.90
3380;DHT22;1703;51.964;7.642;2022-08-19T15:52:33;27.80;99.90
3380;DHT22;1703;51.964;7.642;2022-08-19T15:54:59;27.90;99.90
3380;DHT22;1703;51.964;7.642;2022-08-19T15:57:27;27.80;99.90
3380;DHT22;1703;51.964;7.642;2022-08-19T16:00:14;27.80;99.90
3380;DHT22;1703;51.964;7.642;2022-08-19T16:02:58;27.70;99.90
3380;DHT22;1703;51.964;7.642;2022-08-19T16:05:43;27.70;99.90
3380;DHT22;1703;51.964;7.642;2022-08-19T16:08:27;27.60;99.90
3380;DHT22;1703;51.964;7.642;2022-08-19T16:10:54;27.50;99.90
3380;DHT22;1703;51.964;7.642;2022-08-19T16:13:21;27.50;99.90
3380;DHT22;1703;51.964;7.642;2022-08-19T16:15:49;27.50;99.90
3380;DHT22;1703;51.964;7.642;2022-08-19T16:18:21;27.50;99.90
3380;DHT22;1703;51.964;7.642;2022-08-19T16:20:49;27.40;99.90
3380;DHT22;1703;51.964;7.642;2022-08-19T16:23:16;27.30;99.90
3380;DHT22;1703;51.964;7.642;2022-08-19T16:25:43;27.20;99.90
3380;DHT22;1703;51.964;7.642;2022-08-19T16:28:09;27.20;99.90
3380;DHT22;1703;51.964;7.642;2022-08-19T16:30:38;27.30;99.90
3380;DHT22;1703;51.964;7.642;2022-08-19T16:33:07;27.10;99.90
3380;DHT22;1703;51.964;7.642;2022-08-19T16:35:35;27.10;99.90
3380;DHT22;1703;51.964;7.642;2022-08-19T16:38:02;27.00;99.90
3380;DHT22;1703;51.964;7.642;2022-08-19T16:40:30;27.00;99.90
3380;DHT22;1703;51.964;7.642;2022-08-19T16:42:57;27.00;99.90
3380;DHT22;1703;51.964;7.642;2022-08-19T16:45:23;26.90;99.90
3380;DHT22;1703;51.964;7.642;2022-08-19T16:47:50;26.80;99.90
3380;DHT22;1703;51.964;7.642;2022-08-19T16:50:19;26.70;99.90
3380;DHT22;1703;51.964;7.642;2022-08-19T16:52:46;26.70;99.90
3380;DHT22;1703;51.964;7.642;2022-08-19T16:55:13;26.60;99.90
3380;DHT22;1703;51.964;7.642;2022-08-19T16:57:41;26.60;99.90
3380;DHT22;1703;51.964;7.642;2022-08-19T17:00:09;26.50;99.90
3380;DHT22;1703;51.964;7.642;2022-08-19T17:02:38;26.50;99.90
3380;DHT22;1703;51.964;7.642;2022-08-19T17:05:07;26.50;99.90
3380;DHT22;1703;51.964;7.642;2022-08-19T17:07:35;26.50;99.90
3380;DHT22;1703;51.964;7.642;2022-08-19T17:10:03;26.50;99.90
3380;DHT22;1703;51.964;7.642;2022-08-19T17:12:30;26.50;99.90
3380;DHT22;1703;51.964;7.642;2022-08-19T17:14:57;26.70;99.90
3380;DHT22;1703;51.964;7.642;2022-08-19T17:17:24;26.70;99.90
3380;DHT22;1703;51.964;7.642;2022-08-19T17:19:50;26.70;99.90
3380;DHT22;1703;51.964;7.642;2022-08-19T17:22:17;26.70;99.90
3380;DHT22;1703;51.964;7.642;2022-08-19T17:24:46;26.60;99.90
3380;DHT22;1703;51.964;7.642;2022-08-19T17:27:12;26.70;99.90
3380;DHT22;1703;51.964;7.642;2022-08-19T17:29:39;26.60;99.90
3380;DHT22;1703;51.964;7.642;2022-08-19T17:32:06;26.60;99.90
3380;DHT22;1703;51.964;7.642;2022-08-19T17:34:34;26.60;99.90
3380;DHT22;1703;51.964;7.642;2022-08-19T17:37:01;26.50;99.90
3380;DHT22;1703;51.964;7.642;2022-08-19T17:39:28;26.50;99.90
3380;DHT22;1703;51.964;7.642;2022-08-19T17:41:56;26.50;99.90
3380;DHT22;1703;51.964;7.642;2022-08-19T17:44:23;26.50;99.90
3380;DHT22;1703;51.964;7.642;2022-08-19T17:46:50;26.40;99.90
3380;DHT22;1703;51.964;7.642;2022-08-19T17:49:18;26.40;99.90
3380;DHT22;1703;51.964;7.642;2022-08-19T17:51:46;26.50;99.90
3380;DHT22;1703;51.964;7.642;2022-08-19T17:54:16;26.40;99.90
3380;DHT22;1703;51.964;7.642;2022-08-19T17:56:44;26.40;99.90
3380;DHT22;1703;51.964;7.642;2022-08-19T17:59:12;26.30;99.90
3380;DHT22;1703;51.964;7.642;2022-08-19T18:01:41;26.40;99.90
3380;DHT22;1703;51.964;7.642;2022-08-19T18:04:08;26.30;99.90
3380;DHT22;1703;51.964;7.642;2022-08-19T18:06:36;26.40;99.90